sensor_id;sensor_type;location;lat;lon;timestamp;temperature;humidity
4374;DHT22;2201;51.100;6.814;2023-03-31T00:01:58;10.90;98.20
4374;DHT22;2201;51.100;6.814;2023-03-31T00:04:26;11.00;98.20
4374;DHT22;2201;51.100;6.814;2023-03-31T00:06:53;11.00;98.20
4374;DHT22;2201;51.100;6.814;2023-03-31T00:09:21;11.00;98.20
4374;DHT22;2201;51.100;6.814;2023-03-31T00:11:49;11.10;98.20
4374;DHT22;2201;51.100;6.814;2023-03-31T00:14:17;11.10;98.20
4374;DHT22;2201;51.100;6.814;2023-03-31T00:16:44;11.10;98.20
4374;DHT22;2201;51.100;6.814;2023-03-31T00:19:12;11.10;98.20
4374;DHT22;2201;51.100;6.814;2023-03-31T00:21:45;11.10;98.20
4374;DHT22;2201;51.100;6.814;2023-03-31T00:24:12;11.10;98.20
4374;DHT22;2201;51.100;6.814;2023-03-31T00:26:40;11.10;98.20
4374;DHT22;2201;51.100;6.814;2023-03-31T00:29:10;11.10;98.20
4374;DHT22;2201;51.100;6.814;2023-03-31T00:31:37;11.10;98.20
4374;DHT22;2201;51.100;6.814;2023-03-31T00:34:04;11.20;98.20
4374;DHT22;2201;51.100;6.814;2023-03-31T00:36:31;11.20;98.20
4374;DHT22;2201;51.100;6.814;2023-03-31T00:39:03;11.20;98.20
4374;DHT22;2201;51.100;6.814;2023-03-31T00:41:31;11.20;98.20
4374;DHT22;2201;51.100;6.814;2023-03-31T00:44:05;11.20;98.20
4374;DHT22;2201;51.100;6.814;2023-03-31T00:46:36;11.20;98.20
4374;DHT22;2201;51.100;6.814;2023-03-31T00:49:04;11.20;98.20
4374;DHT22;2201;51.100;6.814;2023-03-31T00:51:33;11.10;98.20
4374;DHT22;2201;51.100;6.814;2023-03-31T00:54:02;11.10;98.20
4374;DHT22;2201;51.100;6.814;2023-03-31T00:56:32;11.10;98.20
4374;DHT22;2201;51.100;6.814;2023-03-31T00:59:02;11.10;98.20
4374;DHT22;2201;51.100;6.814;2023-03-31T01:01:34;11.10;98.20
4374;DHT22;2201;51.100;6.814;2023-03-31T01:04:04;11.00;98.20
4374;DHT22;2201;51.100;6.814;2023-03-31T01:06:32;11.00;98.20
4374;DHT22;2201;51.100;6.814;2023-03-31T01:08:59;11.00;98.20
4374;DHT22;2201;51.100;6.814;2023-03-31T01:11:31;11.00;98.20
4374;DHT22;2201;51.100;6.814;2023-03-31T01:14:00;10.90;98.20
4374;DHT22;2201;51.100;6.814;2023-03-31T01:16:28;11.00;98.20
4374;DHT22;2201;51.100;6.814;2023-03-31T01:18:57;11.00;98.20
4374;DHT22;2201;51.100;6.814;2023-03-31T01:25:09;11.00;98.20
4374;DHT22;2201;51.100;6.814;2023-03-31T01:28:03;10.90;98.20
4374;DHT22;2201;51.100;6.814;2023-03-31T01:31:02;10.90;98.20
4374;DHT22;2201;51.100;6.814;2023-03-31T01:34:17;10.90;98.20
4374;DHT22;2201;51.100;6.814;2023-03-31T01:37:34;10.90;98.20
4374;DHT22;2201;51.100;6.814;2023-03-31T01:40:35;10.90;98.20
4374;DHT22;2201;51.100;6.814;2023-03-31T01:43:10;10.90;98.20
4374;DHT22;2201;51.100;6.814;2023-03-31T01:45:47;10.90;98.20
4374;DHT22;2201;51.100;6.814;2023-03-31T01:48:19;10.90;98.20
4374;DHT22;2201;51.100;6.814;2023-03-31T01:50:54;10.90;98.20
4374;DHT22;2201;51.100;6.814;2023-03-31T01:53:28;10.90;98.20
4374;DHT22;2201;51.100;6.814;2023-03-31T01:56:04;10.90;98.20
4374;DHT22;2201;51.100;6.814;2023-03-31T01:58:36;10.90;98.20
4374;DHT22;2201;51.100;6.814;2023-03-31T02:01:09;11.00;98.20
4374;DHT22;2201;51.100;6.814;2023-03-31T02:03:44;11.00;98.20
4374;DHT22;2201;51.100;6.814;2023-03-31T02:06:15;11.00;98.20
4374;DHT22;2201;51.100;6.814;2023-03-31T02:08:45;11.00;98.20
4374;DHT22;2201;51.100;6.814;2023-03-31T02:11:15;11.00;98.20
4374;DHT22;2201;51.100;6.814;2023-03-31T02:13:44;11.00;98.20
4374;DHT22;2201;51.100;6.814;2023-03-31T02:16:14;11.00;98.20
4374;DHT22;2201;51.100;6.814;2023-03-31T02:18:44;11.00;98.20
4374;DHT22;2201;51.100;6.814;2023-03-31T02:21:13;11.00;98.20
4374;DHT22;2201;51.100;6.814;2023-03-31T02:23:41;11.00;98.20
4374;DHT22;2201;51.100;6.814;2023-03-31T02:26:13;11.10;98.20
4374;DHT22;2201;51.100;6.814;2023-03-31T02:28:42;11.00;98.20
4374;DHT22;2201;51.100;6.814;2023-03-31T02:31:20;11.00;98.20
4374;DHT22;2201;51.100;6.814;2023-03-31T02:33:50;11.00;98.20
4374;DHT22;2201;51.100;6.814;2023-03-31T02:36:17;11.00;98.20
4374;DHT22;2201;51.100;6.814;2023-03-31T02:38:50;11.00;98.20
4374;DHT22;2201;51.100;6.814;2023-03-31T02:41:17;11.00;98.20
4374;DHT22;2201;51.100;6.814;2023-03-31T02:43:45;11.00;98.20
4374;DHT22;2201;51.100;6.814;2023-03-31T02:46:12;11.00;98.20
4374;DHT22;2201;51.100;6.814;2023-03-31T02:48:42;11.00;98.20
4374;DHT22;2201;51.100;6.814;2023-03-31T02:54:42;11.00;98.20
4374;DHT22;2201;51.100;6.814;2023-03-31T02:57:29;11.00;98.20
4374;DHT22;2201;51.100;6.814;2023-03-31T03:00:06;11.00;98.20
4374;DHT22;2201;51.100;6.814;2023-03-31T03:02:42;11.00;98.20
4374;DHT22;2201;51.100;6.814;2023-03-31T03:05:18;11.00;98.20
4374;DHT22;2201;51.100;6.814;2023-03-31T03:07:55;11.00;98.20
4374;DHT22;2201;51.100;6.814;2023-03-31T03:10:30;11.00;98.20
4374;DHT22;2201;51.100;6.814;2023-03-31T03:13:06;11.00;98.20
4374;DHT22;2201;51.100;6.814;2023-03-31T03:15:40;11.00;98.20
4374;DHT22;2201;51.100;6.814;2023-03-31T03:18:08;11.00;98.20
4374;DHT22;2201;51.100;6.814;2023-03-31T03:20:35;11.00;98.20
4374;DHT22;2201;51.100;6.814;2023-03-31T03:23:03;11.00;98.20
4374;DHT22;2201;51.100;6.814;2023-03-31T03:25:30;11.00;98.20
4374;DHT22;2201;51.100;6.814;2023-03-31T03:27:58;10.90;98.20
4374;DHT22;2201;51.100;6.814;2023-03-31T03:30:25;11.00;98.20
4374;DHT22;2201;51.100;6.814;2023-03-31T03:32:53;11.00;98.20
4374;DHT22;2201;51.100;6.814;2023-03-31T03:35:20;11.00;98.20
4374;DHT22;2201;51.100;6.814;2023-03-31T03:37:47;11.00;98.20
4374;DHT22;2201;51.100;6.814;2023-03-31T03:40:16;11.00;98.20
4374;DHT22;2201;51.100;6.814;2023-03-31T03:42:43;11.00;98.20
4374;DHT22;2201;51.100;6.814;2023-03-31T03:45:09;11.00;98.20
4374;DHT22;2201;51.100;6.814;2023-03-31T03:47:36;11.00;98.20
4374;DHT22;2201;51.100;6.814;2023-03-31T03:50:06;11.00;98.20
4374;DHT22;2201;51.100;6.814;2023-03-31T03:52:33;11.10;98.20
4374;DHT22;2201;51.100;6.814;2023-03-31T03:54:59;11.10;98.20
4374;DHT22;2201;51.100;6.814;2023-03-31T03:57:28;11.10;98.20
4374;DHT22;2201;51.100;6.814;2023-03-31T03:59:55;11.10;98.20
4374;DHT22;2201;51.100;6.814;2023-03-31T04:02:22;11.10;98.20
4374;DHT22;2201;51.100;6.814;2023-03-31T04:04:49;11.10;98.20
4374;DHT22;2201;51.100;6.814;2023-03-31T04:07:17;11.10;98.20
4374;DHT22;2201;51.100;6.814;2023-03-31T04:09:43;11.10;98.20
4374;DHT22;2201;51.100;6.814;2023-03-31T04:12:10;11.10;98.20
4374;DHT22;2201;51.100;6.814;2023-03-31T04:14:37;11.10;98.20
4374;DHT22;2201;51.100;6.814;2023-03-31T04:17:04;11.10;98.20
4374;DHT22;2201;51.100;6.814;2023-03-31T04:19:30;11.10;98.20
4374;DHT22;2201;51.100;6.814;2023-03-31T04:21:57;11.10;98.20
4374;DHT22;2201;51.100;6.814;2023-03-31T04:24:30;11.10;98.20
4374;DHT22;2201;51.100;6.814;2023-03-31T04:26:58;11.20;98.20
4374;DHT22;2201;51.100;6.814;2023-03-31T04:29:25;11.20;98.20
4374;DHT22;2201;51.100;6.814;2023-03-31T04:31:53;11.20;98.20
4374;DHT22;2201;51.100;6.814;2023-03-31T04:34:23;11.20;98.20
4374;DHT22;2201;51.100;6.814;2023-03-31T04:36:59;11.20;98.20
4374;DHT22;2201;51.100;6.814;2023-03-31T04:39:28;11.20;98.20
4374;DHT22;2201;51.100;6.814;2023-03-31T04:41:59;11.20;98.20
4374;DHT22;2201;51.100;6.814;2023-03-31T04:44:26;11.20;98.20
4374;DHT22;2201;51.100;6.814;2023-03-31T04:46:54;11.20;98.20
4374;DHT22;2201;51.100;6.814;2023-03-31T04:49:21;11.20;98.20
4374;DHT22;2201;51.100;6.814;2023-03-31T04:51:47;11.20;98.20
4374;DHT22;2201;51.100;6.814;2023-03-31T04:54:14;11.20;98.20
4374;DHT22;2201;51.100;6.814;2023-03-31T04:56:41;11.20;98.20
4374;DHT22;2201;51.100;6.814;2023-03-31T04:59:09;11.20;98.20
4374;DHT22;2201;51.100;6.814;2023-03-31T05:01:36;11.20;98.20
4374;DHT22;2201;51.100;6.814;2023-03-31T05:04:04;11.20;98.20
4374;DHT22;2201;51.100;6.814;2023-03-31T05:06:30;11.20;98.20
4374;DHT22;2201;51.100;6.814;2023-03-31T05:08:57;11.20;98.20
4374;DHT22;2201;51.100;6.814;2023-03-31T05:11:24;11.20;98.20
4374;DHT22;2201;51.100;6.814;2023-03-31T05:13:52;11.30;98.20
4374;DHT22;2201;51.100;6.814;2023-03-31T05:16:20;11.30;98.20
4374;DHT22;2201;51.100;6.814;2023-03-31T05:18:47;11.30;98.20
4374;DHT22;2201;51.100;6.814;2023-03-31T05:21:15;11.40;98.20
4374;DHT22;2201;51.100;6.814;2023-03-31T05:23:42;11.40;98.20
4374;DHT22;2201;51.100;6.814;2023-03-31T05:26:10;11.40;98.20
4374;DHT22;2201;51.100;6.814;2023-03-31T05:28:38;11.50;98.20
4374;DHT22;2201;51.100;6.814;2023-03-31T05:31:06;11.50;98.20
4374;DHT22;2201;51.100;6.814;2023-03-31T05:33:35;11.50;98.20
4374;DHT22;2201;51.100;6.814;2023-03-31T05:36:05;11.50;98.20
4374;DHT22;2201;51.100;6.814;2023-03-31T05:38:32;11.50;98.20
4374;DHT22;2201;51.100;6.814;2023-03-31T05:41:00;11.50;98.20
4374;DHT22;2201;51.100;6.814;2023-03-31T05:43:27;11.50;98.20
4374;DHT22;2201;51.100;6.814;2023-03-31T05:45:54;11.50;98.20
4374;DHT22;2201;51.100;6.814;2023-03-31T05:48:21;11.50;98.20
4374;DHT22;2201;51.100;6.814;2023-03-31T05:50:49;11.50;98.20
4374;DHT22;2201;51.100;6.814;2023-03-31T05:53:16;11.50;98.20
4374;DHT22;2201;51.100;6.814;2023-03-31T05:55:42;11.50;98.20
4374;DHT22;2201;51.100;6.814;2023-03-31T05:58:10;11.50;98.20
4374;DHT22;2201;51.100;6.814;2023-03-31T06:00:36;11.50;98.20
4374;DHT22;2201;51.100;6.814;2023-03-31T06:03:03;11.40;98.20
4374;DHT22;2201;51.100;6.814;2023-03-31T06:05:32;11.40;98.20
4374;DHT22;2201;51.100;6.814;2023-03-31T06:08:01;11.30;98.20
4374;DHT22;2201;51.100;6.814;2023-03-31T06:10:28;11.30;98.20
4374;DHT22;2201;51.100;6.814;2023-03-31T06:12:55;11.20;98.20
4374;DHT22;2201;51.100;6.814;2023-03-31T06:15:22;11.20;98.20
4374;DHT22;2201;51.100;6.814;2023-03-31T06:17:49;11.20;98.20
4374;DHT22;2201;51.100;6.814;2023-03-31T06:20:16;11.10;98.20
4374;DHT22;2201;51.100;6.814;2023-03-31T06:22:43;11.10;98.20
4374;DHT22;2201;51.100;6.814;2023-03-31T06:25:11;11.10;98.20
4374;DHT22;2201;51.100;6.814;2023-03-31T06:27:38;11.00;98.20
4374;DHT22;2201;51.100;6.814;2023-03-31T06:30:06;11.00;98.20
4374;DHT22;2201;51.100;6.814;2023-03-31T06:32:33;11.00;98.20
4374;DHT22;2201;51.100;6.814;2023-03-31T06:35:00;11.00;98.20
4374;DHT22;2201;51.100;6.814;2023-03-31T06:37:27;11.00;98.20
4374;DHT22;2201;51.100;6.814;2023-03-31T06:39:54;11.00;98.20
4374;DHT22;2201;51.100;6.814;2023-03-31T06:42:22;11.00;98.20
4374;DHT22;2201;51.100;6.814;2023-03-31T06:44:49;10.90;98.20
4374;DHT22;2201;51.100;6.814;2023-03-31T06:47:15;10.90;98.20
4374;DHT22;2201;51.100;6.814;2023-03-31T06:49:42;10.90;98.20
4374;DHT22;2201;51.100;6.814;2023-03-31T06:52:09;10.90;98.20
4374;DHT22;2201;51.100;6.814;2023-03-31T06:54:36;10.90;98.20
4374;DHT22;2201;51.100;6.814;2023-03-31T06:57:03;10.90;98.20
4374;DHT22;2201;51.100;6.814;2023-03-31T06:59:31;10.90;98.20
4374;DHT22;2201;51.100;6.814;2023-03-31T07:01:58;10.90;98.20
4374;DHT22;2201;51.100;6.814;2023-03-31T07:04:25;10.90;98.20
4374;DHT22;2201;51.100;6.814;2023-03-31T07:06:52;10.90;98.20
4374;DHT22;2201;51.100;6.814;2023-03-31T07:09:20;10.90;98.20
4374;DHT22;2201;51.100;6.814;2023-03-31T07:11:48;11.00;98.20
4374;DHT22;2201;51.100;6.814;2023-03-31T07:14:15;11.00;98.20
4374;DHT22;2201;51.100;6.814;2023-03-31T07:16:44;11.00;98.20
4374;DHT22;2201;51.100;6.814;2023-03-31T07:19:12;11.10;98.20
4374;DHT22;2201;51.100;6.814;2023-03-31T07:21:40;11.10;98.20
4374;DHT22;2201;51.100;6.814;2023-03-31T07:24:07;11.10;98.20
4374;DHT22;2201;51.100;6.814;2023-03-31T07:26:34;11.20;98.20
4374;DHT22;2201;51.100;6.814;2023-03-31T07:29:01;11.20;98.20
4374;DHT22;2201;51.100;6.814;2023-03-31T07:31:29;11.20;98.20
4374;DHT22;2201;51.100;6.814;2023-03-31T07:33:57;11.40;98.20
4374;DHT22;2201;51.100;6.814;2023-03-31T07:36:25;11.40;98.20
4374;DHT22;2201;51.100;6.814;2023-03-31T07:38:53;11.50;98.20
4374;DHT22;2201;51.100;6.814;2023-03-31T07:41:21;11.60;98.20
4374;DHT22;2201;51.100;6.814;2023-03-31T07:43:49;11.70;98.20
4374;DHT22;2201;51.100;6.814;2023-03-31T07:46:19;11.70;98.20
4374;DHT22;2201;51.100;6.814;2023-03-31T07:48:47;11.80;98.20
4374;DHT22;2201;51.100;6.814;2023-03-31T07:51:19;11.90;98.20
4374;DHT22;2201;51.100;6.814;2023-03-31T07:53:47;12.00;98.20
4374;DHT22;2201;51.100;6.814;2023-03-31T07:56:17;12.20;98.20
4374;DHT22;2201;51.100;6.814;2023-03-31T07:58:46;12.40;98.20
4374;DHT22;2201;51.100;6.814;2023-03-31T08:01:14;12.60;98.20
4374;DHT22;2201;51.100;6.814;2023-03-31T08:03:44;12.80;98.20
4374;DHT22;2201;51.100;6.814;2023-03-31T08:06:18;13.00;98.20
4374;DHT22;2201;51.100;6.814;2023-03-31T08:08:46;13.10;98.20
4374;DHT22;2201;51.100;6.814;2023-03-31T08:11:14;13.30;98.20
4374;DHT22;2201;51.100;6.814;2023-03-31T08:13:42;13.30;98.20
4374;DHT22;2201;51.100;6.814;2023-03-31T08:16:09;13.30;98.20
4374;DHT22;2201;51.100;6.814;2023-03-31T08:18:36;13.30;98.20
4374;DHT22;2201;51.100;6.814;2023-03-31T08:21:04;13.40;98.20
4374;DHT22;2201;51.100;6.814;2023-03-31T08:23:33;13.30;98.20
4374;DHT22;2201;51.100;6.814;2023-03-31T08:26:18;13.30;98.20
4374;DHT22;2201;51.100;6.814;2023-03-31T08:28:49;13.10;98.20
4374;DHT22;2201;51.100;6.814;2023-03-31T08:31:17;13.10;98.20
4374;DHT22;2201;51.100;6.814;2023-03-31T08:33:46;13.10;98.20
4374;DHT22;2201;51.100;6.814;2023-03-31T08:36:13;13.10;98.20
4374;DHT22;2201;51.100;6.814;2023-03-31T08:38:42;13.10;98.20
4374;DHT22;2201;51.100;6.814;2023-03-31T08:41:22;13.10;98.20
4374;DHT22;2201;51.100;6.814;2023-03-31T08:43:55;13.10;98.20
4374;DHT22;2201;51.100;6.814;2023-03-31T08:46:27;13.10;98.20
4374;DHT22;2201;51.100;6.814;2023-03-31T08:48:58;13.20;98.20
4374;DHT22;2201;51.100;6.814;2023-03-31T08:51:29;13.30;98.20
4374;DHT22;2201;51.100;6.814;2023-03-31T08:54:01;13.50;98.20
4374;DHT22;2201;51.100;6.814;2023-03-31T08:56:32;13.60;98.20
4374;DHT22;2201;51.100;6.814;2023-03-31T08:59:03;13.80;98.20
4374;DHT22;2201;51.100;6.814;2023-03-31T09:01:38;14.00;98.20
4374;DHT22;2201;51.100;6.814;2023-03-31T09:04:22;14.30;98.20
4374;DHT22;2201;51.100;6.814;2023-03-31T09:06:59;14.60;98.20
4374;DHT22;2201;51.100;6.814;2023-03-31T09:09:41;14.80;98.20
4374;DHT22;2201;51.100;6.814;2023-03-31T09:12:12;14.90;98.20
4374;DHT22;2201;51.100;6.814;2023-03-31T09:14:47;15.00;98.20
4374;DHT22;2201;51.100;6.814;2023-03-31T09:17:22;15.10;98.20
4374;DHT22;2201;51.100;6.814;2023-03-31T09:19:54;15.10;98.20
4374;DHT22;2201;51.100;6.814;2023-03-31T09:22:28;15.20;98.20
4374;DHT22;2201;51.100;6.814;2023-03-31T09:25:01;15.30;98.20
4374;DHT22;2201;51.100;6.814;2023-03-31T09:27:32;15.40;98.20
4374;DHT22;2201;51.100;6.814;2023-03-31T09:30:03;15.40;98.20
4374;DHT22;2201;51.100;6.814;2023-03-31T09:32:32;15.40;98.20
4374;DHT22;2201;51.100;6.814;2023-03-31T09:35:01;15.50;98.20
4374;DHT22;2201;51.100;6.814;2023-03-31T09:37:39;15.60;98.20
4374;DHT22;2201;51.100;6.814;2023-03-31T09:40:15;15.70;98.20
4374;DHT22;2201;51.100;6.814;2023-03-31T09:42:44;16.00;98.20
4374;DHT22;2201;51.100;6.814;2023-03-31T09:45:14;16.10;98.20
4374;DHT22;2201;51.100;6.814;2023-03-31T09:47:44;16.10;98.20
4374;DHT22;2201;51.100;6.814;2023-03-31T09:50:13;16.20;98.20
4374;DHT22;2201;51.100;6.814;2023-03-31T09:52:43;16.20;98.20
4374;DHT22;2201;51.100;6.814;2023-03-31T09:55:20;16.20;98.20
4374;DHT22;2201;51.100;6.814;2023-03-31T09:57:48;16.00;98.20
4374;DHT22;2201;51.100;6.814;2023-03-31T10:00:17;15.90;98.20
4374;DHT22;2201;51.100;6.814;2023-03-31T10:02:48;15.70;98.20
4374;DHT22;2201;51.100;6.814;2023-03-31T10:05:28;15.60;98.20
4374;DHT22;2201;51.100;6.814;2023-03-31T10:08:19;15.40;98.20
4374;DHT22;2201;51.100;6.814;2023-03-31T10:10:50;15.20;98.20
4374;DHT22;2201;51.100;6.814;2023-03-31T10:13:21;15.10;98.20
4374;DHT22;2201;51.100;6.814;2023-03-31T10:15:51;15.10;98.20
4374;DHT22;2201;51.100;6.814;2023-03-31T10:18:34;15.10;98.20
4374;DHT22;2201;51.100;6.814;2023-03-31T10:21:03;15.10;98.20
4374;DHT22;2201;51.100;6.814;2023-03-31T10:23:32;15.10;98.20
4374;DHT22;2201;51.100;6.814;2023-03-31T10:26:03;15.30;98.20
4374;DHT22;2201;51.100;6.814;2023-03-31T10:28:34;15.40;98.20
4374;DHT22;2201;51.100;6.814;2023-03-31T10:31:02;15.60;98.20
4374;DHT22;2201;51.100;6.814;2023-03-31T10:33:32;15.90;98.20
4374;DHT22;2201;51.100;6.814;2023-03-31T10:36:02;16.20;98.20
4374;DHT22;2201;51.100;6.814;2023-03-31T10:38:35;16.40;98.20
4374;DHT22;2201;51.100;6.814;2023-03-31T10:41:06;16.60;98.20
4374;DHT22;2201;51.100;6.814;2023-03-31T10:43:37;16.70;98.20
4374;DHT22;2201;51.100;6.814;2023-03-31T10:46:06;16.80;98.20
4374;DHT22;2201;51.100;6.814;2023-03-31T10:48:36;16.80;97.30
4374;DHT22;2201;51.100;6.814;2023-03-31T10:51:10;16.70;96.50
4374;DHT22;2201;51.100;6.814;2023-03-31T10:53:40;16.50;97.70
4374;DHT22;2201;51.100;6.814;2023-03-31T10:56:23;16.20;98.20
4374;DHT22;2201;51.100;6.814;2023-03-31T10:59:04;15.80;98.20
4374;DHT22;2201;51.100;6.814;2023-03-31T11:01:43;15.40;98.20
4374;DHT22;2201;51.100;6.814;2023-03-31T11:04:43;14.90;98.20
4374;DHT22;2201;51.100;6.814;2023-03-31T11:07:21;14.50;98.20
4374;DHT22;2201;51.100;6.814;2023-03-31T11:10:16;14.30;98.20
4374;DHT22;2201;51.100;6.814;2023-03-31T11:12:51;14.20;98.20
4374;DHT22;2201;51.100;6.814;2023-03-31T11:15:27;14.00;98.20
4374;DHT22;2201;51.100;6.814;2023-03-31T11:18:21;13.70;98.20
4374;DHT22;2201;51.100;6.814;2023-03-31T11:20:57;13.30;98.20
4374;DHT22;2201;51.100;6.814;2023-03-31T11:23:37;13.00;98.20
4374;DHT22;2201;51.100;6.814;2023-03-31T11:26:12;12.90;98.20
4374;DHT22;2201;51.100;6.814;2023-03-31T11:29:05;12.90;98.20
4374;DHT22;2201;51.100;6.814;2023-03-31T11:31:46;12.90;98.20
4374;DHT22;2201;51.100;6.814;2023-03-31T11:37:28;13.10;98.20
4374;DHT22;2201;51.100;6.814;2023-03-31T11:40:14;13.30;98.20
4374;DHT22;2201;51.100;6.814;2023-03-31T11:42:48;13.40;98.20
4374;DHT22;2201;51.100;6.814;2023-03-31T11:45:30;13.60;98.20
4374;DHT22;2201;51.100;6.814;2023-03-31T11:48:08;13.70;98.20
4374;DHT22;2201;51.100;6.814;2023-03-31T11:50:38;13.90;98.20
4374;DHT22;2201;51.100;6.814;2023-03-31T11:53:15;14.00;98.20
4374;DHT22;2201;51.100;6.814;2023-03-31T11:55:47;14.10;98.20
4374;DHT22;2201;51.100;6.814;2023-03-31T11:58:17;14.20;98.20
4374;DHT22;2201;51.100;6.814;2023-03-31T12:00:51;14.40;98.20
4374;DHT22;2201;51.100;6.814;2023-03-31T12:03:22;14.50;98.20
4374;DHT22;2201;51.100;6.814;2023-03-31T12:05:54;14.70;98.20
4374;DHT22;2201;51.100;6.814;2023-03-31T12:08:29;14.80;98.20
4374;DHT22;2201;51.100;6.814;2023-03-31T12:11:02;15.00;98.20
4374;DHT22;2201;51.100;6.814;2023-03-31T12:13:40;14.90;98.20
4374;DHT22;2201;51.100;6.814;2023-03-31T12:16:14;14.90;98.20
4374;DHT22;2201;51.100;6.814;2023-03-31T12:18:48;14.80;98.20
4374;DHT22;2201;51.100;6.814;2023-03-31T12:21:21;14.90;98.20
4374;DHT22;2201;51.100;6.814;2023-03-31T12:23:53;15.00;98.20
4374;DHT22;2201;51.100;6.814;2023-03-31T12:26:35;15.10;98.20
4374;DHT22;2201;51.100;6.814;2023-03-31T12:29:14;15.30;98.20
4374;DHT22;2201;51.100;6.814;2023-03-31T12:31:51;15.40;98.20
4374;DHT22;2201;51.100;6.814;2023-03-31T12:34:23;15.50;98.20
4374;DHT22;2201;51.100;6.814;2023-03-31T12:37:04;15.70;98.20
4374;DHT22;2201;51.100;6.814;2023-03-31T12:39:42;15.90;98.20
4374;DHT22;2201;51.100;6.814;2023-03-31T12:42:30;16.10;98.20
4374;DHT22;2201;51.100;6.814;2023-03-31T12:45:06;16.30;98.20
4374;DHT22;2201;51.100;6.814;2023-03-31T12:47:54;16.40;98.20
4374;DHT22;2201;51.100;6.814;2023-03-31T12:50:38;16.50;98.20
4374;DHT22;2201;51.100;6.814;2023-03-31T12:53:17;16.60;98.20
4374;DHT22;2201;51.100;6.814;2023-03-31T12:55:48;16.60;98.20
4374;DHT22;2201;51.100;6.814;2023-03-31T12:58:43;16.60;98.20
4374;DHT22;2201;51.100;6.814;2023-03-31T13:01:15;16.70;98.20
4374;DHT22;2201;51.100;6.814;2023-03-31T13:03:51;16.70;98.20
4374;DHT22;2201;51.100;6.814;2023-03-31T13:06:52;16.70;98.20
4374;DHT22;2201;51.100;6.814;2023-03-31T13:09:44;16.60;98.20
4374;DHT22;2201;51.100;6.814;2023-03-31T13:12:19;16.60;98.20
4374;DHT22;2201;51.100;6.814;2023-03-31T13:14:50;16.40;98.20
4374;DHT22;2201;51.100;6.814;2023-03-31T13:17:25;16.40;98.20
4374;DHT22;2201;51.100;6.814;2023-03-31T13:20:13;16.40;98.20
4374;DHT22;2201;51.100;6.814;2023-03-31T13:22:45;16.30;98.20
4374;DHT22;2201;51.100;6.814;2023-03-31T13:25:39;16.30;98.20
4374;DHT22;2201;51.100;6.814;2023-03-31T13:28:24;16.40;98.20
4374;DHT22;2201;51.100;6.814;2023-03-31T13:30:56;16.50;98.20
4374;DHT22;2201;51.100;6.814;2023-03-31T13:33:32;16.60;97.20
4374;DHT22;2201;51.100;6.814;2023-03-31T13:42:47;17.40;94.60
4374;DHT22;2201;51.100;6.814;2023-03-31T13:45:47;17.30;92.80
4374;DHT22;2201;51.100;6.814;2023-03-31T13:48:27;17.10;93.40
4374;DHT22;2201;51.100;6.814;2023-03-31T13:51:21;16.80;94.40
4374;DHT22;2201;51.100;6.814;2023-03-31T13:57:23;16.60;96.20
4374;DHT22;2201;51.100;6.814;2023-03-31T14:00:18;16.60;96.70
4374;DHT22;2201;51.100;6.814;2023-03-31T14:02:56;16.70;96.00
4374;DHT22;2201;51.100;6.814;2023-03-31T14:05:34;16.70;95.00
4374;DHT22;2201;51.100;6.814;2023-03-31T14:08:08;16.70;94.70
4374;DHT22;2201;51.100;6.814;2023-03-31T14:10:38;16.60;93.70
4374;DHT22;2201;51.100;6.814;2023-03-31T14:13:08;16.70;94.00
4374;DHT22;2201;51.100;6.814;2023-03-31T14:15:38;16.70;93.20
4374;DHT22;2201;51.100;6.814;2023-03-31T14:18:07;16.60;91.10
4374;DHT22;2201;51.100;6.814;2023-03-31T14:20:50;16.50;91.70
4374;DHT22;2201;51.100;6.814;2023-03-31T14:23:29;16.50;92.30
4374;DHT22;2201;51.100;6.814;2023-03-31T14:26:03;16.40;92.10
4374;DHT22;2201;51.100;6.814;2023-03-31T14:31:25;16.20;92.80
4374;DHT22;2201;51.100;6.814;2023-03-31T14:34:21;16.10;93.60
4374;DHT22;2201;51.100;6.814;2023-03-31T14:36:55;16.00;92.90
4374;DHT22;2201;51.100;6.814;2023-03-31T14:39:29;15.90;92.80
4374;DHT22;2201;51.100;6.814;2023-03-31T14:42:01;15.80;93.50
4374;DHT22;2201;51.100;6.814;2023-03-31T14:44:30;15.70;94.00
4374;DHT22;2201;51.100;6.814;2023-03-31T14:46:59;15.70;94.90
4374;DHT22;2201;51.100;6.814;2023-03-31T14:49:28;15.60;94.70
4374;DHT22;2201;51.100;6.814;2023-03-31T14:52:00;15.50;94.40
4374;DHT22;2201;51.100;6.814;2023-03-31T14:54:34;15.50;95.00
4374;DHT22;2201;51.100;6.814;2023-03-31T14:57:04;15.50;94.80
4374;DHT22;2201;51.100;6.814;2023-03-31T14:59:33;15.40;94.60
4374;DHT22;2201;51.100;6.814;2023-03-31T15:02:03;15.30;95.30
4374;DHT22;2201;51.100;6.814;2023-03-31T15:04:36;15.20;95.30
4374;DHT22;2201;51.100;6.814;2023-03-31T15:07:10;15.20;96.30
4374;DHT22;2201;51.100;6.814;2023-03-31T15:09:44;15.10;97.40
4374;DHT22;2201;51.100;6.814;2023-03-31T15:12:15;15.00;98.20
4374;DHT22;2201;51.100;6.814;2023-03-31T15:14:45;14.90;98.20
4374;DHT22;2201;51.100;6.814;2023-03-31T15:17:19;14.60;98.20
4374;DHT22;2201;51.100;6.814;2023-03-31T15:19:50;14.40;98.20
4374;DHT22;2201;51.100;6.814;2023-03-31T15:22:18;14.20;98.20
4374;DHT22;2201;51.100;6.814;2023-03-31T15:24:49;14.00;98.20
4374;DHT22;2201;51.100;6.814;2023-03-31T15:27:22;13.80;98.20
4374;DHT22;2201;51.100;6.814;2023-03-31T15:29:53;13.60;98.20
4374;DHT22;2201;51.100;6.814;2023-03-31T15:32:24;13.60;98.20
4374;DHT22;2201;51.100;6.814;2023-03-31T15:34:53;13.60;98.20
4374;DHT22;2201;51.100;6.814;2023-03-31T15:37:22;13.50;98.20
4374;DHT22;2201;51.100;6.814;2023-03-31T15:39:55;13.40;98.20
4374;DHT22;2201;51.100;6.814;2023-03-31T15:42:24;13.40;98.20
4374;DHT22;2201;51.100;6.814;2023-03-31T15:44:54;13.40;98.20
4374;DHT22;2201;51.100;6.814;2023-03-31T15:47:23;13.40;98.20
4374;DHT22;2201;51.100;6.814;2023-03-31T15:49:56;13.40;98.20
4374;DHT22;2201;51.100;6.814;2023-03-31T15:52:28;13.40;98.20
4374;DHT22;2201;51.100;6.814;2023-03-31T15:55:00;13.40;98.20
4374;DHT22;2201;51.100;6.814;2023-03-31T15:57:32;13.40;98.20
4374;DHT22;2201;51.100;6.814;2023-03-31T16:00:00;13.40;98.20
4374;DHT22;2201;51.100;6.814;2023-03-31T16:02:38;13.40;98.20
4374;DHT22;2201;51.100;6.814;2023-03-31T16:05:21;13.30;98.20
4374;DHT22;2201;51.100;6.814;2023-03-31T16:07:50;13.30;98.20
4374;DHT22;2201;51.100;6.814;2023-03-31T16:10:21;13.30;98.20
4374;DHT22;2201;51.100;6.814;2023-03-31T16:12:51;13.30;98.20
4374;DHT22;2201;51.100;6.814;2023-03-31T16:15:27;13.30;98.20
4374;DHT22;2201;51.100;6.814;2023-03-31T16:17:58;13.30;98.20
4374;DHT22;2201;51.100;6.814;2023-03-31T16:20:31;13.30;98.20
4374;DHT22;2201;51.100;6.814;2023-03-31T16:23:10;13.40;98.20
4374;DHT22;2201;51.100;6.814;2023-03-31T16:25:40;13.40;98.20
4374;DHT22;2201;51.100;6.814;2023-03-31T16:28:13;13.40;98.20
4374;DHT22;2201;51.100;6.814;2023-03-31T16:30:42;13.40;98.20
4374;DHT22;2201;51.100;6.814;2023-03-31T16:33:11;13.50;98.20
4374;DHT22;2201;51.100;6.814;2023-03-31T16:35:40;13.50;98.20
4374;DHT22;2201;51.100;6.814;2023-03-31T16:38:10;13.50;98.20
4374;DHT22;2201;51.100;6.814;2023-03-31T16:40:40;13.50;98.20
4374;DHT22;2201;51.100;6.814;2023-03-31T16:43:11;13.50;98.20
4374;DHT22;2201;51.100;6.814;2023-03-31T16:45:42;13.50;98.20
4374;DHT22;2201;51.100;6.814;2023-03-31T16:48:09;13.50;98.20
4374;DHT22;2201;51.100;6.814;2023-03-31T16:50:37;13.50;98.20
4374;DHT22;2201;51.100;6.814;2023-03-31T16:53:07;13.50;98.20
4374;DHT22;2201;51.100;6.814;2023-03-31T16:55:36;13.50;98.20
4374;DHT22;2201;51.100;6.814;2023-03-31T16:58:05;13.40;98.20